Terminal Aerodrome Forecast
Issued by NWS

Home | Current Version | Previous Version | Text Only | Print | Product List | Glossary On
Versions: 1 2 3 4 5 6 7 8 9 10 11 12 13
000
FTUS44 KTSA 312300
TAFBVO
TAF
KBVO 312340Z 0100/0124 16007KT 4SM -RA OVC035
     FM010300 17008KT 4SM -RA BR OVC015
     FM010600 17008KT 4SM -RA BR OVC008
      TEMPO 0106/0110 2SM -RA BR OVC005
     FM011300 31010G18KT P6SM OVC015 PROB30 0113/0116 5SM -RA OVC015
     FM011800 33015G23KT P6SM OVC035=

USA.gov is the U.S. government's official web portal to all federal, state and local government web resources and services.